createdAt,value
2019-03-24T00:00:30.762Z,99.90
2019-03-24T00:03:01.255Z,99.90
2019-03-24T00:05:31.539Z,99.90
2019-03-24T00:08:01.797Z,99.90
2019-03-24T00:10:32.412Z,99.90
2019-03-24T00:13:02.678Z,99.90
2019-03-24T00:15:32.955Z,99.90
2019-03-24T00:18:04.136Z,99.90
2019-03-24T00:20:34.428Z,99.90
2019-03-24T00:23:06.111Z,99.90
2019-03-24T00:25:37.153Z,99.90
2019-03-24T00:28:07.337Z,99.90
2019-03-24T00:30:38.132Z,99.90
2019-03-24T00:33:10.096Z,99.90
2019-03-24T00:35:41.301Z,99.90
2019-03-24T00:38:13.329Z,99.90
2019-03-24T00:40:43.423Z,98.60
2019-03-24T00:43:15.391Z,99.90
2019-03-24T00:45:45.499Z,99.90
2019-03-24T00:48:16.120Z,99.90
2019-03-24T00:50:48.235Z,99.90
2019-03-24T00:53:18.682Z,99.90
2019-03-24T00:55:48.875Z,99.90
2019-03-24T00:58:19.375Z,99.90
2019-03-24T01:00:53.561Z,99.90
2019-03-24T01:03:23.791Z,99.90
2019-03-24T01:05:55.331Z,99.60
2019-03-24T01:08:25.864Z,99.90
2019-03-24T01:10:56.254Z,99.90
2019-03-24T01:13:26.616Z,99.90
2019-03-24T01:15:56.780Z,99.90
2019-03-24T01:18:28.056Z,99.90
2019-03-24T01:20:58.169Z,99.90
2019-03-24T01:23:30.271Z,99.90
2019-03-24T01:26:01.681Z,99.90
2019-03-24T01:28:32.375Z,99.90
2019-03-24T01:31:02.554Z,99.90
2019-03-24T01:33:33.395Z,99.90
2019-03-24T01:36:05.468Z,99.90
2019-03-24T01:38:35.559Z,99.90
2019-03-24T01:41:07.997Z,99.90
2019-03-24T01:43:37.933Z,99.90
2019-03-24T01:46:08.631Z,99.90
2019-03-24T01:48:39.043Z,99.90
2019-03-24T01:51:10.988Z,99.90
2019-03-24T01:53:41.391Z,99.90
2019-03-24T01:56:11.502Z,99.90
2019-03-24T01:58:41.958Z,99.90
2019-03-24T02:01:12.048Z,99.90
2019-03-24T02:03:44.242Z,97.30
2019-03-24T02:06:14.919Z,99.90
2019-03-24T02:08:47.460Z,99.90
2019-03-24T02:11:17.739Z,99.20
2019-03-24T02:13:49.241Z,99.90
2019-03-24T02:16:19.515Z,98.90
2019-03-24T02:18:51.119Z,99.90
2019-03-24T02:21:22.781Z,99.20
2019-03-24T02:23:52.901Z,99.90
2019-03-24T02:26:24.180Z,99.90
2019-03-24T02:28:56.300Z,99.90
2019-03-24T02:31:26.687Z,98.30
2019-03-24T02:33:56.911Z,99.90
2019-03-24T02:36:28.979Z,99.90
2019-03-24T02:39:00.198Z,99.90
2019-03-24T02:41:30.288Z,99.90
2019-03-24T02:44:01.972Z,99.90
2019-03-24T02:46:32.211Z,99.90
2019-03-24T02:49:02.436Z,99.90
2019-03-24T02:51:34.543Z,99.90
2019-03-24T02:54:04.826Z,99.90
2019-03-24T02:56:37.082Z,99.90
2019-03-24T02:59:07.702Z,98.20
2019-03-24T03:01:37.987Z,99.90
2019-03-24T03:04:08.160Z,99.90
2019-03-24T03:06:40.168Z,99.90
2019-03-24T03:09:10.936Z,99.90
2019-03-24T03:11:41.196Z,99.40
2019-03-24T03:14:11.515Z,99.60
2019-03-24T03:16:42.303Z,99.90
2019-03-24T03:19:15.380Z,99.90
2019-03-24T03:21:45.810Z,99.90
2019-03-24T03:24:16.124Z,99.90
2019-03-24T03:26:47.521Z,97.20
2019-03-24T03:29:17.640Z,99.90
2019-03-24T03:31:47.908Z,99.90
2019-03-24T03:34:18.291Z,99.90
2019-03-24T03:36:48.522Z,99.90
2019-03-24T03:39:19.028Z,99.90
2019-03-24T03:41:49.790Z,99.90
2019-03-24T03:44:20.100Z,99.90
2019-03-24T03:46:54.065Z,99.90
2019-03-24T03:49:25.970Z,99.90
2019-03-24T03:51:56.584Z,99.90
2019-03-24T03:54:26.693Z,99.90
2019-03-24T03:56:57.056Z,99.90
2019-03-24T03:59:27.434Z,99.90
2019-03-24T04:01:58.137Z,99.20
2019-03-24T04:04:30.034Z,99.50
2019-03-24T04:07:00.493Z,99.90
2019-03-24T04:09:31.817Z,99.90
2019-03-24T04:12:01.956Z,99.90
2019-03-24T04:14:32.389Z,98.10
2019-03-24T04:17:07.534Z,99.90
2019-03-24T04:19:34.407Z,99.90
2019-03-24T04:22:04.688Z,99.90
2019-03-24T04:24:36.855Z,99.90
2019-03-24T04:27:08.381Z,99.90
2019-03-24T04:29:40.219Z,99.40
2019-03-24T04:32:12.104Z,99.90
2019-03-24T04:34:42.804Z,95.60
2019-03-24T04:37:14.024Z,99.90
2019-03-24T04:39:45.365Z,99.90
2019-03-24T04:42:17.539Z,97.30
2019-03-24T04:44:47.956Z,99.90
2019-03-24T04:47:18.172Z,99.70
2019-03-24T04:49:48.355Z,99.90
2019-03-24T04:52:18.717Z,98.60
2019-03-24T04:54:48.947Z,99.90
2019-03-24T04:57:19.875Z,99.90
2019-03-24T04:59:50.187Z,99.90
2019-03-24T05:02:21.435Z,99.90
2019-03-24T05:04:51.518Z,99.90
2019-03-24T05:07:22.080Z,98.40
2019-03-24T05:09:54.432Z,99.90
2019-03-24T05:12:27.378Z,99.00
2019-03-24T05:14:58.032Z,99.30
2019-03-24T05:17:28.556Z,99.60
2019-03-24T05:19:59.968Z,99.10
2019-03-24T05:22:30.271Z,98.90
2019-03-24T05:25:00.520Z,95.60
2019-03-24T05:27:30.714Z,99.90
2019-03-24T05:30:00.963Z,99.90
2019-03-24T05:32:33.343Z,99.90
2019-03-24T05:35:05.777Z,99.10
2019-03-24T05:37:37.499Z,99.40
2019-03-24T05:40:09.143Z,99.10
2019-03-24T05:42:39.307Z,99.80
2019-03-24T05:45:13.523Z,99.90
2019-03-24T05:47:45.186Z,96.90
2019-03-24T05:50:15.412Z,99.90
2019-03-24T05:52:47.436Z,98.00
2019-03-24T05:55:17.621Z,98.30
2019-03-24T05:57:47.788Z,99.90
2019-03-24T06:00:19.067Z,98.30
2019-03-24T06:02:49.528Z,99.90
2019-03-24T06:05:19.807Z,99.90
2019-03-24T06:07:51.542Z,99.90
2019-03-24T06:10:21.896Z,99.90
2019-03-24T06:12:53.607Z,99.90
2019-03-24T06:15:24.054Z,99.90
2019-03-24T06:17:54.263Z,97.20
2019-03-24T06:20:24.511Z,99.90
2019-03-24T06:22:56.501Z,99.90
2019-03-24T06:30:27.735Z,99.90
2019-03-24T06:32:57.815Z,99.90
2019-03-24T06:35:28.392Z,99.90
2019-03-24T06:37:58.487Z,98.60
2019-03-24T06:40:31.796Z,99.30
2019-03-24T06:43:02.568Z,99.00
2019-03-24T06:45:33.327Z,98.70
2019-03-24T06:48:03.863Z,98.50
2019-03-24T06:50:34.113Z,97.80
2019-03-24T06:53:06.279Z,97.10
2019-03-24T06:55:36.384Z,95.20
2019-03-24T06:58:06.662Z,93.60
2019-03-24T07:00:36.771Z,92.30
2019-03-24T07:03:08.051Z,91.60
2019-03-24T07:05:39.755Z,92.50
2019-03-24T07:08:10.954Z,90.20
2019-03-24T07:10:41.279Z,92.20
2019-03-24T07:13:11.804Z,91.30
2019-03-24T07:15:42.207Z,85.90
2019-03-24T07:20:42.009Z,88.90
2019-03-24T07:23:12.189Z,86.00
2019-03-24T07:25:44.249Z,89.00
2019-03-24T07:28:14.615Z,82.50
2019-03-24T07:30:45.002Z,84.30
2019-03-24T07:33:16.107Z,90.00
2019-03-24T07:35:48.210Z,89.50
2019-03-24T07:38:19.627Z,87.10
2019-03-24T07:40:49.978Z,87.60
2019-03-24T07:43:20.195Z,85.30
2019-03-24T07:45:50.325Z,83.60
2019-03-24T07:48:20.972Z,89.60
2019-03-24T07:50:51.447Z,90.30
2019-03-24T07:53:23.599Z,91.70
2019-03-24T07:55:54.821Z,92.20
2019-03-24T07:58:25.528Z,91.60
2019-03-24T08:00:57.619Z,86.80
2019-03-24T08:03:29.755Z,91.60
2019-03-24T08:06:00.086Z,92.10
2019-03-24T08:08:30.892Z,92.00
2019-03-24T08:11:01.175Z,91.50
2019-03-24T08:13:31.967Z,90.30
2019-03-24T08:16:02.789Z,89.80
2019-03-24T08:18:32.999Z,90.00
2019-03-24T08:21:03.702Z,87.10
2019-03-24T08:23:36.171Z,83.60
2019-03-24T08:26:08.550Z,80.00
2019-03-24T08:28:40.059Z,84.50
2019-03-24T08:31:10.424Z,88.20
2019-03-24T08:33:41.070Z,88.90
2019-03-24T08:36:12.327Z,90.90
2019-03-24T08:38:42.743Z,80.90
2019-03-24T08:41:13.165Z,91.50
2019-03-24T08:43:43.711Z,91.00
2019-03-24T08:46:14.331Z,94.20
2019-03-24T08:48:46.643Z,95.40
2019-03-24T08:51:18.471Z,97.50
2019-03-24T08:53:48.715Z,96.70
2019-03-24T08:56:18.915Z,96.10
2019-03-24T08:58:50.757Z,97.40
2019-03-24T09:01:21.103Z,95.70
2019-03-24T09:03:51.467Z,96.20
2019-03-24T09:08:51.067Z,96.80
2019-03-24T09:11:30.892Z,90.20
2019-03-24T09:13:53.396Z,92.60
2019-03-24T09:16:23.619Z,95.70
2019-03-24T09:18:53.937Z,92.70
2019-03-24T09:21:24.052Z,91.40
2019-03-24T09:23:56.655Z,91.10
2019-03-24T09:26:26.952Z,91.40
2019-03-24T09:28:59.273Z,89.10
2019-03-24T09:31:29.812Z,95.40
2019-03-24T09:34:00.136Z,92.50
2019-03-24T09:36:31.475Z,92.30
2019-03-24T09:39:01.748Z,90.40
2019-03-24T09:41:32.031Z,93.20
2019-03-24T09:44:02.603Z,94.10
2019-03-24T09:46:34.762Z,92.10
2019-03-24T09:49:05.032Z,89.30
2019-03-24T09:51:36.974Z,93.50
2019-03-24T09:54:07.486Z,86.00
2019-03-24T09:56:37.735Z,85.60
2019-03-24T09:59:07.992Z,91.10
2019-03-24T10:01:38.375Z,90.20
2019-03-24T10:04:10.280Z,91.10
2019-03-24T10:06:41.990Z,89.60
2019-03-24T10:09:14.299Z,87.70
2019-03-24T10:11:44.383Z,90.00
2019-03-24T10:14:15.728Z,90.60
2019-03-24T10:16:46.126Z,91.60
2019-03-24T10:19:16.448Z,91.40
2019-03-24T10:21:46.710Z,91.90
2019-03-24T10:24:17.081Z,94.50
2019-03-24T10:26:47.279Z,91.80
2019-03-24T10:29:17.524Z,92.70
2019-03-24T10:31:47.823Z,93.00
2019-03-24T10:34:17.959Z,94.90
2019-03-24T10:36:48.131Z,93.10
2019-03-24T10:39:18.673Z,92.80
2019-03-24T10:41:50.032Z,91.90
2019-03-24T10:44:20.263Z,88.20
2019-03-24T10:46:51.616Z,91.10
2019-03-24T10:49:25.198Z,90.50
2019-03-24T10:51:55.547Z,88.40
2019-03-24T11:11:55.295Z,90.50
2019-03-24T11:14:26.549Z,94.90
2019-03-24T11:16:56.672Z,95.90
2019-03-24T11:19:35.279Z,90.80
2019-03-24T11:21:59.298Z,88.30
2019-03-24T11:24:31.087Z,91.10
2019-03-24T11:27:01.638Z,87.90
2019-03-24T11:29:31.931Z,94.00
2019-03-24T11:32:02.328Z,92.40
2019-03-24T11:34:32.551Z,91.20
2019-03-24T11:37:03.898Z,91.20
2019-03-24T11:39:33.970Z,91.80
2019-03-24T11:42:04.417Z,94.10
2019-03-24T11:44:34.881Z,88.40
2019-03-24T11:47:07.455Z,90.30
2019-03-24T11:49:45.962Z,91.70
2019-03-24T11:52:12.940Z,91.10
2019-03-24T11:54:44.536Z,92.40
2019-03-24T11:57:14.630Z,92.10
2019-03-24T11:59:47.279Z,89.40
2019-03-24T12:02:17.540Z,97.90
2019-03-24T12:04:47.989Z,82.80
2019-03-24T12:07:21.140Z,91.30
2019-03-24T12:09:51.628Z,90.20
2019-03-24T12:12:21.889Z,91.10
2019-03-24T12:14:53.180Z,96.70
2019-03-24T12:17:24.084Z,90.50
2019-03-24T12:19:57.120Z,96.80
2019-03-24T12:22:27.617Z,84.00
2019-03-24T12:25:00.038Z,84.70
2019-03-24T12:27:32.004Z,91.40
2019-03-24T12:30:02.227Z,90.40
2019-03-24T12:32:32.586Z,94.90
2019-03-24T12:35:04.247Z,77.00
2019-03-24T12:37:34.779Z,94.90
2019-03-24T12:40:05.523Z,82.40
2019-03-24T12:42:35.632Z,83.10
2019-03-24T12:45:06.500Z,80.40
2019-03-24T12:47:39.109Z,80.80
2019-03-24T12:50:10.527Z,97.00
2019-03-24T12:52:40.811Z,77.50
2019-03-24T12:55:12.087Z,92.40
2019-03-24T12:57:44.237Z,81.00
2019-03-24T13:00:16.097Z,84.50
2019-03-24T13:02:46.399Z,80.20
2019-03-24T13:05:16.666Z,86.70
2019-03-24T13:07:47.162Z,92.10
2019-03-24T13:10:17.611Z,87.60
2019-03-24T13:12:48.345Z,97.50
2019-03-24T13:15:18.677Z,90.40
2019-03-24T13:17:51.008Z,90.10
2019-03-24T13:20:36.625Z,89.10
2019-03-24T13:22:56.417Z,97.50
2019-03-24T13:25:26.741Z,90.60
2019-03-24T13:27:57.007Z,90.30
2019-03-24T13:30:28.459Z,88.50
2019-03-24T13:32:58.706Z,85.40
2019-03-24T13:35:29.947Z,93.50
2019-03-24T13:38:04.527Z,84.00
2019-03-24T13:40:35.003Z,85.90
2019-03-24T13:43:06.526Z,82.30
2019-03-24T13:45:36.830Z,94.40
2019-03-24T13:48:07.167Z,84.70
2019-03-24T13:50:37.612Z,87.40
2019-03-24T13:53:09.003Z,89.60
2019-03-24T13:55:40.715Z,99.70
2019-03-24T13:58:12.208Z,97.70
2019-03-24T14:00:43.488Z,93.70
2019-03-24T14:03:13.811Z,95.50
2019-03-24T14:05:44.439Z,72.10
2019-03-24T14:08:14.655Z,90.30
2019-03-24T14:10:44.847Z,94.70
2019-03-24T14:13:17.908Z,89.90
2019-03-24T14:15:48.410Z,96.70
2019-03-24T14:18:18.774Z,92.00
2019-03-24T14:20:48.941Z,81.00
2019-03-24T14:23:20.226Z,87.00
2019-03-24T14:25:50.286Z,81.60
2019-03-24T14:28:20.628Z,81.90
2019-03-24T14:30:51.749Z,90.30
2019-03-24T14:33:22.784Z,77.80
2019-03-24T14:35:55.103Z,90.90
2019-03-24T14:38:25.411Z,84.60
2019-03-24T14:40:57.439Z,95.50
2019-03-24T14:43:27.943Z,90.40
2019-03-24T14:45:58.271Z,71.70
2019-03-24T14:48:28.618Z,92.90
2019-03-24T14:50:59.165Z,81.70
2019-03-24T14:53:30.563Z,74.10
2019-03-24T14:56:02.527Z,86.70
2019-03-24T14:58:32.955Z,92.10
2019-03-24T15:01:03.210Z,77.10
2019-03-24T15:03:33.566Z,97.20
2019-03-24T15:06:05.452Z,93.20
2019-03-24T15:08:37.180Z,87.30
2019-03-24T15:11:08.616Z,93.30
2019-03-24T15:13:38.847Z,85.70
2019-03-24T15:16:09.337Z,91.30
2019-03-24T15:18:39.709Z,80.00
2019-03-24T15:21:11.487Z,83.90
2019-03-24T15:23:42.160Z,74.60
2019-03-24T15:26:12.471Z,65.70
2019-03-24T15:28:43.157Z,73.70
2019-03-24T15:31:14.539Z,96.60
2019-03-24T15:33:44.615Z,69.20
2019-03-24T15:36:16.089Z,91.60
2019-03-24T15:38:46.351Z,96.10
2019-03-24T15:41:18.515Z,81.40
2019-03-24T15:43:48.871Z,95.90
2019-03-24T15:46:19.375Z,91.00
2019-03-24T15:48:51.338Z,95.90
2019-03-24T15:51:22.920Z,77.70
2019-03-24T15:53:54.347Z,90.70
2019-03-24T15:56:24.903Z,82.70
2019-03-24T15:58:55.099Z,97.50
2019-03-24T16:01:25.651Z,94.60
2019-03-24T16:03:58.148Z,83.30
2019-03-24T16:06:28.513Z,98.10
2019-03-24T16:08:58.849Z,92.50
2019-03-24T16:11:29.336Z,93.90
2019-03-24T16:14:00.611Z,89.10
2019-03-24T16:16:30.909Z,94.30
2019-03-24T16:19:01.103Z,90.50
2019-03-24T16:21:31.794Z,97.10
2019-03-24T16:24:01.985Z,96.90
2019-03-24T16:26:32.221Z,95.70
2019-03-24T16:29:02.356Z,94.90
2019-03-24T16:31:35.427Z,97.60
2019-03-24T16:34:05.667Z,96.40
2019-03-24T16:36:35.915Z,96.00
2019-03-24T16:44:07.161Z,95.60
2019-03-24T16:54:07.461Z,88.30
2019-03-24T16:56:37.717Z,90.00
2019-03-24T16:59:09.540Z,92.50
2019-03-24T17:01:41.483Z,91.10
2019-03-24T17:04:13.139Z,92.20
2019-03-24T17:06:43.375Z,91.80
2019-03-24T17:09:15.367Z,87.50
2019-03-24T17:11:47.384Z,81.80
2019-03-24T17:14:19.299Z,91.80
2019-03-24T17:16:51.807Z,93.30
2019-03-24T17:19:23.464Z,92.90
2019-03-24T17:21:55.104Z,92.40
2019-03-24T17:24:25.583Z,90.20
2019-03-24T17:26:57.219Z,88.60
2019-03-24T17:29:27.406Z,94.40
2019-03-24T17:32:00.227Z,93.80
2019-03-24T17:34:30.428Z,93.40
2019-03-24T17:37:00.698Z,91.90
2019-03-24T17:39:31.331Z,93.10
2019-03-24T17:42:01.809Z,91.20
2019-03-24T17:44:32.617Z,94.30
2019-03-24T17:47:02.803Z,95.60
2019-03-24T17:49:34.168Z,96.80
2019-03-24T17:52:04.483Z,94.60
2019-03-24T17:54:36.795Z,92.10
2019-03-24T17:57:07.128Z,90.90
2019-03-24T17:59:37.378Z,92.90
2019-03-24T18:02:14.313Z,96.80
2019-03-24T18:04:41.547Z,97.20
2019-03-24T18:07:11.746Z,91.50
2019-03-24T18:09:41.955Z,96.30
2019-03-24T18:12:13.191Z,95.30
2019-03-24T18:14:43.842Z,94.20
2019-03-24T18:17:13.974Z,94.40
2019-03-24T18:19:47.220Z,95.90
2019-03-24T18:22:18.258Z,94.40
2019-03-24T18:24:50.363Z,94.50
2019-03-24T18:29:51.616Z,93.40
2019-03-24T18:32:23.018Z,94.00
2019-03-24T18:34:55.347Z,93.90
2019-03-24T18:37:25.639Z,88.90
2019-03-24T18:39:55.975Z,95.00
2019-03-24T18:42:27.603Z,94.50
2019-03-24T18:44:59.020Z,93.60
2019-03-24T18:47:29.527Z,94.40
2019-03-24T18:49:59.754Z,95.30
2019-03-24T18:52:29.982Z,95.60
2019-03-24T18:55:00.392Z,94.70
2019-03-24T18:57:33.819Z,94.50
2019-03-24T19:00:04.007Z,91.90
2019-03-24T19:02:34.347Z,90.60
2019-03-24T19:05:04.620Z,97.40
2019-03-24T19:07:36.711Z,94.90
2019-03-24T19:10:07.289Z,90.70
2019-03-24T19:12:37.963Z,97.50
2019-03-24T19:15:09.203Z,96.50
2019-03-24T19:17:39.527Z,95.40
2019-03-24T19:20:10.325Z,90.40
2019-03-24T19:22:42.455Z,95.10
2019-03-24T19:25:12.994Z,95.30
2019-03-24T19:27:43.085Z,93.80
2019-03-24T19:30:15.054Z,95.60
2019-03-24T19:32:47.362Z,94.80
2019-03-24T19:35:20.798Z,96.40
2019-03-24T19:37:52.464Z,95.80
2019-03-24T19:40:29.750Z,95.70
2019-03-24T19:43:01.356Z,93.20
2019-03-24T19:45:31.747Z,95.10
2019-03-24T19:48:02.996Z,97.20
2019-03-24T19:50:33.371Z,97.60
2019-03-24T19:53:05.411Z,95.70
2019-03-24T19:55:36.854Z,95.40
2019-03-24T19:58:06.935Z,87.80
2019-03-24T20:00:38.995Z,96.80
2019-03-24T20:03:09.820Z,96.40
2019-03-24T20:05:41.858Z,96.10
2019-03-24T20:08:14.334Z,95.70
2019-03-24T20:10:45.303Z,96.90
2019-03-24T20:13:15.660Z,94.60
2019-03-24T20:15:48.025Z,93.20
2019-03-24T20:18:19.595Z,95.90
2019-03-24T20:20:52.110Z,97.50
2019-03-24T20:23:22.187Z,91.40
2019-03-24T20:25:52.435Z,99.80
2019-03-24T20:28:24.262Z,92.40
2019-03-24T20:30:55.680Z,99.20
2019-03-24T20:33:25.898Z,96.80
2019-03-24T20:35:58.055Z,91.50
2019-03-24T20:38:28.137Z,95.80
2019-03-24T20:40:58.707Z,95.70
2019-03-24T20:43:29.081Z,96.20
2019-03-24T20:46:01.473Z,97.50
2019-03-24T20:48:32.457Z,94.80
2019-03-24T20:51:03.023Z,96.50
2019-03-24T20:53:35.032Z,92.50
2019-03-24T20:56:05.607Z,95.60
2019-03-24T20:58:35.965Z,93.90
2019-03-24T21:01:06.288Z,97.00
2019-03-24T21:03:37.056Z,93.20
2019-03-24T21:06:07.177Z,95.50
2019-03-24T21:08:38.531Z,95.30
2019-03-24T21:11:08.935Z,90.60
2019-03-24T21:13:39.242Z,95.80
2019-03-24T21:16:09.619Z,95.00
2019-03-24T21:18:40.160Z,95.10
2019-03-24T21:21:10.429Z,95.10
2019-03-24T21:23:40.781Z,94.40
2019-03-24T21:26:12.141Z,94.20
2019-03-24T21:28:44.224Z,94.20
2019-03-24T21:31:15.403Z,94.00
2019-03-24T21:33:47.021Z,94.00
2019-03-24T21:36:17.219Z,93.90
2019-03-24T21:38:49.322Z,93.90
2019-03-24T21:41:19.431Z,94.00
2019-03-24T21:43:52.323Z,94.00
2019-03-24T21:46:22.760Z,93.90
2019-03-24T21:48:54.746Z,93.90
2019-03-24T21:51:25.082Z,93.90
2019-03-24T21:53:56.947Z,93.90
2019-03-24T21:56:28.203Z,94.30
2019-03-24T21:58:58.343Z,94.00
2019-03-24T22:01:28.590Z,94.00
2019-03-24T22:03:58.842Z,93.90
2019-03-24T22:06:30.903Z,93.90
2019-03-24T22:09:01.128Z,94.00
2019-03-24T22:11:32.413Z,94.00
2019-03-24T22:14:02.743Z,93.90
2019-03-24T22:16:33.016Z,93.90
2019-03-24T22:19:05.074Z,94.00
2019-03-24T22:21:35.599Z,94.30
2019-03-24T22:24:08.754Z,93.30
2019-03-24T22:26:40.069Z,94.70
2019-03-24T22:29:12.176Z,94.30
2019-03-24T22:31:44.155Z,94.10
2019-03-24T22:34:14.777Z,92.80
2019-03-24T22:36:44.860Z,94.30
2019-03-24T22:39:15.015Z,94.30
2019-03-24T22:41:45.472Z,94.70
2019-03-24T22:44:15.853Z,95.00
2019-03-24T22:46:46.040Z,93.60
2019-03-24T22:49:17.585Z,96.20
2019-03-24T22:51:50.410Z,95.30
2019-03-24T22:54:21.755Z,90.50
2019-03-24T22:56:53.041Z,96.70
2019-03-24T22:59:23.310Z,97.40
2019-03-24T23:01:54.420Z,91.70
2019-03-24T23:04:24.951Z,95.00
2019-03-24T23:06:56.731Z,97.20
2019-03-24T23:09:27.062Z,98.00
2019-03-24T23:11:59.147Z,95.10
2019-03-24T23:14:29.556Z,97.70
2019-03-24T23:17:01.239Z,92.80
2019-03-24T23:19:31.456Z,99.60
2019-03-24T23:22:01.718Z,97.90
2019-03-24T23:24:31.832Z,97.90
2019-03-24T23:27:02.156Z,95.80
2019-03-24T23:29:32.275Z,99.90
2019-03-24T23:32:02.674Z,98.00
2019-03-24T23:34:33.128Z,99.40
2019-03-24T23:37:04.354Z,99.90
2019-03-24T23:39:34.719Z,94.00
2019-03-24T23:42:04.951Z,98.00
2019-03-24T23:44:36.904Z,96.20
2019-03-24T23:47:08.863Z,98.60
2019-03-24T23:49:40.488Z,96.00
2019-03-24T23:52:10.567Z,97.70
2019-03-24T23:54:40.967Z,97.00
2019-03-24T23:57:12.337Z,97.10
2019-03-24T23:59:42.482Z,96.30
